sensor_id;sensor_type;location;lat;lon;timestamp;pressure;altitude;pressure_sealevel;temperature;humidity
53647;BME280;39550;52.230;5.194;2023-07-02T00:02:17;100542.41;;;17.68;72.76
53647;BME280;39550;52.230;5.194;2023-07-02T00:04:44;100544.94;;;17.72;72.81
53647;BME280;39550;52.230;5.194;2023-07-02T00:07:09;100541.50;;;17.71;72.57
53647;BME280;39550;52.230;5.194;2023-07-02T00:09:34;100538.00;;;17.70;72.78
53647;BME280;39550;52.230;5.194;2023-07-02T00:12:00;100537.25;;;17.67;72.72
53647;BME280;39550;52.230;5.194;2023-07-02T00:14:25;100538.19;;;17.64;72.59
53647;BME280;39550;52.230;5.194;2023-07-02T00:16:50;100537.25;;;17.67;72.65
53647;BME280;39550;52.230;5.194;2023-07-02T00:19:16;100544.19;;;17.66;72.32
53647;BME280;39550;52.230;5.194;2023-07-02T00:21:41;100543.47;;;17.61;72.67
53647;BME280;39550;52.230;5.194;2023-07-02T00:24:07;100539.13;;;17.62;72.88
53647;BME280;39550;52.230;5.194;2023-07-02T00:26:34;100550.38;;;17.62;72.60
53647;BME280;39550;52.230;5.194;2023-07-02T00:29:00;100553.03;;;17.61;72.28
53647;BME280;39550;52.230;5.194;2023-07-02T00:31:25;100550.47;;;17.59;72.65
53647;BME280;39550;52.230;5.194;2023-07-02T00:33:50;100544.38;;;17.60;72.52
53647;BME280;39550;52.230;5.194;2023-07-02T00:36:16;100551.31;;;17.60;72.61
53647;BME280;39550;52.230;5.194;2023-07-02T00:38:41;100555.59;;;17.62;72.07
53647;BME280;39550;52.230;5.194;2023-07-02T00:41:07;100565.16;;;17.62;72.15
53647;BME280;39550;52.230;5.194;2023-07-02T00:43:33;100560.88;;;17.59;72.01
53647;BME280;39550;52.230;5.194;2023-07-02T00:45:58;100564.34;;;17.60;71.95
53647;BME280;39550;52.230;5.194;2023-07-02T00:48:23;100560.03;;;17.59;71.77
53647;BME280;39550;52.230;5.194;2023-07-02T00:50:49;100558.31;;;17.58;72.12
53647;BME280;39550;52.230;5.194;2023-07-02T00:53:14;100532.69;;;17.42;71.78
53647;BME280;39550;52.230;5.194;2023-07-02T00:55:40;100565.31;;;17.57;72.00
53647;BME280;39550;52.230;5.194;2023-07-02T00:58:05;100569.59;;;17.58;72.06
53647;BME280;39550;52.230;5.194;2023-07-02T01:00:30;100557.53;;;17.54;72.23
53647;BME280;39550;52.230;5.194;2023-07-02T01:02:56;100566.28;;;17.53;71.67
53647;BME280;39550;52.230;5.194;2023-07-02T01:05:25;100562.84;;;17.51;71.77
53647;BME280;39550;52.230;5.194;2023-07-02T01:07:50;100567.19;;;17.50;71.61
53647;BME280;39550;52.230;5.194;2023-07-02T01:10:16;100571.53;;;17.50;71.55
53647;BME280;39550;52.230;5.194;2023-07-02T01:12:41;100562.84;;;17.51;71.52
53647;BME280;39550;52.230;5.194;2023-07-02T01:15:09;100564.63;;;17.49;71.82
53647;BME280;39550;52.230;5.194;2023-07-02T01:17:35;100570.75;;;17.48;71.42
53647;BME280;39550;52.230;5.194;2023-07-02T01:20:07;100577.72;;;17.46;71.54
53647;BME280;39550;52.230;5.194;2023-07-02T01:22:33;100569.84;;;17.49;71.64
53647;BME280;39550;52.230;5.194;2023-07-02T01:24:59;100577.72;;;17.47;71.18
53647;BME280;39550;52.230;5.194;2023-07-02T01:27:26;100570.81;;;17.45;71.57
53647;BME280;39550;52.230;5.194;2023-07-02T01:29:53;100567.34;;;17.44;71.44
53647;BME280;39550;52.230;5.194;2023-07-02T01:32:18;100566.53;;;17.42;71.66
53647;BME280;39550;52.230;5.194;2023-07-02T01:34:43;100574.34;;;17.42;71.01
53647;BME280;39550;52.230;5.194;2023-07-02T01:37:09;100572.63;;;17.41;71.38
53647;BME280;39550;52.230;5.194;2023-07-02T01:39:34;100578.69;;;17.42;71.64
53647;BME280;39550;52.230;5.194;2023-07-02T01:42:16;100576.06;;;17.43;70.81
53647;BME280;39550;52.230;5.194;2023-07-02T01:44:43;100580.50;;;17.40;71.45
53647;BME280;39550;52.230;5.194;2023-07-02T01:47:08;100576.13;;;17.40;70.90
53647;BME280;39550;52.230;5.194;2023-07-02T01:49:34;100578.78;;;17.39;71.13
53647;BME280;39550;52.230;5.194;2023-07-02T01:52:01;100577.06;;;17.38;71.24
53647;BME280;39550;52.230;5.194;2023-07-02T01:54:26;100579.69;;;17.36;71.09
53647;BME280;39550;52.230;5.194;2023-07-02T01:56:52;100582.34;;;17.34;70.96
53647;BME280;39550;52.230;5.194;2023-07-02T01:59:17;100582.34;;;17.34;71.02
53647;BME280;39550;52.230;5.194;2023-07-02T02:01:43;100580.66;;;17.33;71.38
53647;BME280;39550;52.230;5.194;2023-07-02T02:04:08;100582.34;;;17.34;70.67
53647;BME280;39550;52.230;5.194;2023-07-02T02:06:34;100581.53;;;17.32;71.12
53647;BME280;39550;52.230;5.194;2023-07-02T02:08:59;100584.94;;;17.34;70.78
53647;BME280;39550;52.230;5.194;2023-07-02T02:11:25;100578.94;;;17.32;70.78
53647;BME280;39550;52.230;5.194;2023-07-02T02:13:50;100581.53;;;17.32;70.86
53647;BME280;39550;52.230;5.194;2023-07-02T02:16:16;100577.22;;;17.31;70.73
53647;BME280;39550;52.230;5.194;2023-07-02T02:18:41;100572.00;;;17.31;71.21
53647;BME280;39550;52.230;5.194;2023-07-02T02:21:07;100582.44;;;17.31;70.41
53647;BME280;39550;52.230;5.194;2023-07-02T02:23:34;100584.16;;;17.32;70.77
53647;BME280;39550;52.230;5.194;2023-07-02T02:26:00;100582.47;;;17.30;70.44
53647;BME280;39550;52.230;5.194;2023-07-02T02:28:25;100585.06;;;17.30;70.38
53647;BME280;39550;52.230;5.194;2023-07-02T02:30:50;100589.47;;;17.26;70.67
53647;BME280;39550;52.230;5.194;2023-07-02T02:33:16;100591.19;;;17.27;70.72
53647;BME280;39550;52.230;5.194;2023-07-02T02:35:41;100591.19;;;17.27;70.37
53647;BME280;39550;52.230;5.194;2023-07-02T02:38:06;100586.88;;;17.26;70.53
53647;BME280;39550;52.230;5.194;2023-07-02T02:40:32;100588.63;;;17.26;70.55
53647;BME280;39550;52.230;5.194;2023-07-02T02:42:57;100591.25;;;17.26;70.33
53647;BME280;39550;52.230;5.194;2023-07-02T02:45:22;100586.06;;;17.24;69.96
53647;BME280;39550;52.230;5.194;2023-07-02T02:47:48;100589.56;;;17.23;70.27
53647;BME280;39550;52.230;5.194;2023-07-02T02:50:13;100594.78;;;17.23;70.54
53647;BME280;39550;52.230;5.194;2023-07-02T02:52:39;100601.69;;;17.24;70.22
53647;BME280;39550;52.230;5.194;2023-07-02T02:55:05;100601.69;;;17.24;70.32
53647;BME280;39550;52.230;5.194;2023-07-02T02:57:31;100602.63;;;17.22;69.85
53647;BME280;39550;52.230;5.194;2023-07-02T02:59:56;100611.31;;;17.21;69.60
53647;BME280;39550;52.230;5.194;2023-07-02T03:02:21;100610.47;;;17.20;69.87
53647;BME280;39550;52.230;5.194;2023-07-02T03:04:47;100605.34;;;17.17;69.75
53647;BME280;39550;52.230;5.194;2023-07-02T03:07:14;100608.84;;;17.16;70.09
53647;BME280;39550;52.230;5.194;2023-07-02T03:09:39;100607.19;;;17.12;70.32
53647;BME280;39550;52.230;5.194;2023-07-02T03:12:05;100609.78;;;17.12;70.33
53647;BME280;39550;52.230;5.194;2023-07-02T03:14:30;100608.94;;;17.11;69.93
53647;BME280;39550;52.230;5.194;2023-07-02T03:16:55;100620.22;;;17.12;69.56
53647;BME280;39550;52.230;5.194;2023-07-02T03:19:23;100622.81;;;17.12;70.32
53647;BME280;39550;52.230;5.194;2023-07-02T03:21:49;100619.38;;;17.10;69.85
53647;BME280;39550;52.230;5.194;2023-07-02T03:24:14;100615.88;;;17.11;69.74
53647;BME280;39550;52.230;5.194;2023-07-02T03:26:40;100618.53;;;17.09;69.80
53647;BME280;39550;52.230;5.194;2023-07-02T03:29:06;100621.97;;;17.10;70.02
53647;BME280;39550;52.230;5.194;2023-07-02T03:31:31;100622.91;;;17.09;70.27
53647;BME280;39550;52.230;5.194;2023-07-02T03:33:56;100624.66;;;17.07;69.72
53647;BME280;39550;52.230;5.194;2023-07-02T03:36:22;100617.72;;;17.06;70.42
53647;BME280;39550;52.230;5.194;2023-07-02T03:38:50;100621.25;;;17.05;70.03
53647;BME280;39550;52.230;5.194;2023-07-02T03:41:16;100620.34;;;17.06;69.74
53647;BME280;39550;52.230;5.194;2023-07-02T03:43:41;100621.25;;;17.05;69.87
53647;BME280;39550;52.230;5.194;2023-07-02T03:46:06;100626.44;;;17.05;69.57
53647;BME280;39550;52.230;5.194;2023-07-02T03:48:34;100625.63;;;17.02;69.56
53647;BME280;39550;52.230;5.194;2023-07-02T03:51:01;100633.44;;;17.02;69.79
53647;BME280;39550;52.230;5.194;2023-07-02T03:53:26;100637.78;;;17.02;69.64
53647;BME280;39550;52.230;5.194;2023-07-02T03:55:51;100633.44;;;17.02;69.66
53647;BME280;39550;52.230;5.194;2023-07-02T03:58:16;100635.22;;;17.00;70.10
53647;BME280;39550;52.230;5.194;2023-07-02T04:00:42;100639.50;;;17.01;69.96
53647;BME280;39550;52.230;5.194;2023-07-02T04:03:09;100637.88;;;16.99;70.23
53647;BME280;39550;52.230;5.194;2023-07-02T04:05:34;100643.06;;;16.99;69.68
53647;BME280;39550;52.230;5.194;2023-07-02T04:07:59;100643.91;;;16.99;69.97
53647;BME280;39550;52.230;5.194;2023-07-02T04:10:25;100650.00;;;16.98;69.50
53647;BME280;39550;52.230;5.194;2023-07-02T04:12:50;100651.75;;;16.98;70.12
53647;BME280;39550;52.230;5.194;2023-07-02T04:15:15;100656.09;;;16.97;69.45
53647;BME280;39550;52.230;5.194;2023-07-02T04:17:41;100656.09;;;16.97;69.39
53647;BME280;39550;52.230;5.194;2023-07-02T04:20:06;100651.75;;;16.98;69.85
53647;BME280;39550;52.230;5.194;2023-07-02T04:22:32;100651.75;;;16.98;69.64
53647;BME280;39550;52.230;5.194;2023-07-02T04:24:58;100659.59;;;16.96;69.72
53647;BME280;39550;52.230;5.194;2023-07-02T04:27:24;100651.81;;;16.96;69.65
53647;BME280;39550;52.230;5.194;2023-07-02T04:29:49;100658.72;;;16.96;69.23
53647;BME280;39550;52.230;5.194;2023-07-02T04:32:14;100659.66;;;16.95;69.43
53647;BME280;39550;52.230;5.194;2023-07-02T04:34:40;100664.81;;;16.96;69.75
53647;BME280;39550;52.230;5.194;2023-07-02T04:37:06;100670.06;;;16.95;69.51
53647;BME280;39550;52.230;5.194;2023-07-02T04:39:31;100662.25;;;16.95;69.72
53647;BME280;39550;52.230;5.194;2023-07-02T04:41:57;100663.13;;;16.94;69.68
53647;BME280;39550;52.230;5.194;2023-07-02T04:44:22;100663.97;;;16.94;69.54
53647;BME280;39550;52.230;5.194;2023-07-02T04:47:01;100671.81;;;16.93;69.74
53647;BME280;39550;52.230;5.194;2023-07-02T04:49:26;100674.38;;;16.94;69.47
53647;BME280;39550;52.230;5.194;2023-07-02T04:51:51;100680.47;;;16.93;69.51
53647;BME280;39550;52.230;5.194;2023-07-02T04:54:18;100679.59;;;16.94;69.21
53647;BME280;39550;52.230;5.194;2023-07-02T04:56:47;100676.19;;;16.92;69.23
53647;BME280;39550;52.230;5.194;2023-07-02T04:59:13;100676.09;;;16.95;68.96
53647;BME280;39550;52.230;5.194;2023-07-02T05:01:38;100679.56;;;16.96;69.19
53647;BME280;39550;52.230;5.194;2023-07-02T05:04:04;100673.47;;;16.97;69.20
53647;BME280;39550;52.230;5.194;2023-07-02T05:06:30;100676.91;;;16.97;68.82
53647;BME280;39550;52.230;5.194;2023-07-02T05:08:55;100675.16;;;16.99;69.04
53647;BME280;39550;52.230;5.194;2023-07-02T05:11:20;100675.97;;;17.01;68.62
53647;BME280;39550;52.230;5.194;2023-07-02T05:13:46;100678.56;;;17.01;68.70
53647;BME280;39550;52.230;5.194;2023-07-02T05:16:11;100680.28;;;17.02;68.41
53647;BME280;39550;52.230;5.194;2023-07-02T05:18:40;100693.34;;;17.01;68.23
53647;BME280;39550;52.230;5.194;2023-07-02T05:21:05;100694.25;;;16.98;68.69
53647;BME280;39550;52.230;5.194;2023-07-02T05:23:30;100693.38;;;16.99;68.63
53647;BME280;39550;52.230;5.194;2023-07-02T05:25:56;100694.28;;;16.97;68.63
53647;BME280;39550;52.230;5.194;2023-07-02T05:28:21;100697.75;;;16.97;68.31
53647;BME280;39550;52.230;5.194;2023-07-02T05:30:47;100693.41;;;16.98;68.65
53647;BME280;39550;52.230;5.194;2023-07-02T05:33:12;100698.63;;;16.98;68.03
53647;BME280;39550;52.230;5.194;2023-07-02T05:35:38;100701.22;;;16.98;68.01
53647;BME280;39550;52.230;5.194;2023-07-02T05:38:03;100703.81;;;16.98;68.03
53647;BME280;39550;52.230;5.194;2023-07-02T05:40:28;100710.75;;;16.97;68.29
53647;BME280;39550;52.230;5.194;2023-07-02T05:42:54;100707.31;;;16.97;68.08
53647;BME280;39550;52.230;5.194;2023-07-02T05:45:19;100708.16;;;16.97;67.98
53647;BME280;39550;52.230;5.194;2023-07-02T05:47:44;100709.88;;;16.98;68.32
53647;BME280;39550;52.230;5.194;2023-07-02T05:50:10;100716.81;;;16.99;68.06
53647;BME280;39550;52.230;5.194;2023-07-02T05:52:35;100709.88;;;16.98;67.94
53647;BME280;39550;52.230;5.194;2023-07-02T05:55:00;100719.44;;;16.98;68.23
53647;BME280;39550;52.230;5.194;2023-07-02T05:57:26;100714.22;;;16.98;68.11
53647;BME280;39550;52.230;5.194;2023-07-02T05:59:51;100722.91;;;16.97;68.04
53647;BME280;39550;52.230;5.194;2023-07-02T06:02:16;100730.69;;;16.98;67.57
53647;BME280;39550;52.230;5.194;2023-07-02T06:04:42;100728.09;;;16.98;67.75
53647;BME280;39550;52.230;5.194;2023-07-02T06:07:07;100735.91;;;16.98;68.00
53647;BME280;39550;52.230;5.194;2023-07-02T06:09:33;100732.50;;;16.96;67.72
53647;BME280;39550;52.230;5.194;2023-07-02T06:11:58;100738.50;;;16.98;67.87
53647;BME280;39550;52.230;5.194;2023-07-02T06:14:24;100735.91;;;16.98;67.37
53647;BME280;39550;52.230;5.194;2023-07-02T06:16:50;100733.41;;;16.94;67.25
53647;BME280;39550;52.230;5.194;2023-07-02T06:19:17;100736.81;;;16.96;67.47
53647;BME280;39550;52.230;5.194;2023-07-02T06:21:42;100735.97;;;16.95;67.26
53647;BME280;39550;52.230;5.194;2023-07-02T06:24:07;100734.19;;;16.97;67.07
53647;BME280;39550;52.230;5.194;2023-07-02T06:26:33;100742.84;;;16.99;66.89
53647;BME280;39550;52.230;5.194;2023-07-02T06:28:58;100743.72;;;16.98;67.16
53647;BME280;39550;52.230;5.194;2023-07-02T06:31:23;100744.59;;;16.99;67.35
53647;BME280;39550;52.230;5.194;2023-07-02T06:33:49;100737.63;;;16.99;67.04
53647;BME280;39550;52.230;5.194;2023-07-02T06:36:14;100737.63;;;16.99;66.97
53647;BME280;39550;52.230;5.194;2023-07-02T06:38:40;100733.25;;;17.00;66.96
53647;BME280;39550;52.230;5.194;2023-07-02T06:41:05;100748.91;;;16.98;67.03
53647;BME280;39550;52.230;5.194;2023-07-02T06:43:30;100758.53;;;16.96;67.43
53647;BME280;39550;52.230;5.194;2023-07-02T06:45:55;100763.66;;;16.99;66.83
53647;BME280;39550;52.230;5.194;2023-07-02T06:48:21;100771.44;;;17.01;66.81
53647;BME280;39550;52.230;5.194;2023-07-02T06:50:46;100760.19;;;17.00;67.07
53647;BME280;39550;52.230;5.194;2023-07-02T06:53:12;100764.47;;;17.01;66.58
53647;BME280;39550;52.230;5.194;2023-07-02T06:55:37;100770.53;;;17.04;66.34
53647;BME280;39550;52.230;5.194;2023-07-02T06:58:04;100774.84;;;17.05;66.70
53647;BME280;39550;52.230;5.194;2023-07-02T07:00:31;100776.56;;;17.04;66.66
53647;BME280;39550;52.230;5.194;2023-07-02T07:02:56;100779.22;;;17.02;66.79
53647;BME280;39550;52.230;5.194;2023-07-02T07:05:24;100786.13;;;17.04;66.75
53647;BME280;39550;52.230;5.194;2023-07-02T07:07:49;100778.28;;;17.05;66.68
53647;BME280;39550;52.230;5.194;2023-07-02T07:10:15;100787.88;;;17.05;66.60
53647;BME280;39550;52.230;5.194;2023-07-02T07:12:48;100791.28;;;17.07;66.67
53647;BME280;39550;52.230;5.194;2023-07-02T07:15:16;100794.72;;;17.09;66.37
53647;BME280;39550;52.230;5.194;2023-07-02T07:18:01;100797.38;;;17.07;66.43
53647;BME280;39550;52.230;5.194;2023-07-02T07:20:27;100806.84;;;17.10;66.36
53647;BME280;39550;52.230;5.194;2023-07-02T07:22:52;100805.19;;;17.07;66.37
53647;BME280;39550;52.230;5.194;2023-07-02T07:25:20;100804.22;;;17.10;66.30
53647;BME280;39550;52.230;5.194;2023-07-02T07:27:45;100798.13;;;17.11;65.76
53647;BME280;39550;52.230;5.194;2023-07-02T07:30:13;100803.34;;;17.11;65.93
53647;BME280;39550;52.230;5.194;2023-07-02T07:32:47;100815.41;;;17.15;65.46
53647;BME280;39550;52.230;5.194;2023-07-02T07:35:12;100826.69;;;17.15;65.20
53647;BME280;39550;52.230;5.194;2023-07-02T07:37:37;100827.63;;;17.13;65.92
53647;BME280;39550;52.230;5.194;2023-07-02T07:40:03;100834.41;;;17.20;64.98
53647;BME280;39550;52.230;5.194;2023-07-02T07:42:29;100823.13;;;17.21;65.16
53647;BME280;39550;52.230;5.194;2023-07-02T07:44:54;100824.81;;;17.22;65.49
53647;BME280;39550;52.230;5.194;2023-07-02T07:47:19;100830.88;;;17.24;65.12
53647;BME280;39550;52.230;5.194;2023-07-02T07:49:45;100817.00;;;17.22;65.20
53647;BME280;39550;52.230;5.194;2023-07-02T07:52:10;100820.53;;;17.21;64.73
53647;BME280;39550;52.230;5.194;2023-07-02T07:54:35;100830.97;;;17.18;64.85
53647;BME280;39550;52.230;5.194;2023-07-02T07:57:02;100832.75;;;17.16;65.32
53647;BME280;39550;52.230;5.194;2023-07-02T07:59:28;100823.13;;;17.19;65.12
53647;BME280;39550;52.230;5.194;2023-07-02T08:01:53;100832.63;;;17.22;64.67
53647;BME280;39550;52.230;5.194;2023-07-02T08:04:19;100833.47;;;17.24;65.21
53647;BME280;39550;52.230;5.194;2023-07-02T08:06:47;100829.06;;;17.26;64.71
53647;BME280;39550;52.230;5.194;2023-07-02T08:09:16;100839.56;;;17.23;65.03
53647;BME280;39550;52.230;5.194;2023-07-02T08:11:45;100848.22;;;17.25;64.99
53647;BME280;39550;52.230;5.194;2023-07-02T08:14:11;100842.09;;;17.26;65.00
53647;BME280;39550;52.230;5.194;2023-07-02T08:16:36;100848.22;;;17.25;65.01
53647;BME280;39550;52.230;5.194;2023-07-02T08:19:26;100840.44;;;17.22;65.05
53647;BME280;39550;52.230;5.194;2023-07-02T08:22:05;100810.38;;;17.06;64.88
53647;BME280;39550;52.230;5.194;2023-07-02T08:24:30;100831.59;;;17.31;64.97
53647;BME280;39550;52.230;5.194;2023-07-02T08:26:56;100842.00;;;17.32;64.67
53647;BME280;39550;52.230;5.194;2023-07-02T08:29:40;100839.31;;;17.35;64.55
53647;BME280;39550;52.230;5.194;2023-07-02T08:32:13;100850.44;;;17.44;64.08
53647;BME280;39550;52.230;5.194;2023-07-02T08:34:43;100845.94;;;17.52;64.28
53647;BME280;39550;52.230;5.194;2023-07-02T08:37:09;100851.94;;;17.54;64.31
53647;BME280;39550;52.230;5.194;2023-07-02T08:39:34;100849.47;;;17.48;64.24
53647;BME280;39550;52.230;5.194;2023-07-02T08:42:01;100856.53;;;17.43;64.21
53647;BME280;39550;52.230;5.194;2023-07-02T08:44:26;100851.25;;;17.46;64.27
53647;BME280;39550;52.230;5.194;2023-07-02T08:46:54;100868.53;;;17.50;63.92
53647;BME280;39550;52.230;5.194;2023-07-02T08:49:34;100866.84;;;17.49;63.95
53647;BME280;39550;52.230;5.194;2023-07-02T08:51:59;100859.75;;;17.56;63.62
53647;BME280;39550;52.230;5.194;2023-07-02T08:54:29;100858.06;;;17.53;63.57
53647;BME280;39550;52.230;5.194;2023-07-02T08:56:55;100866.69;;;17.55;63.44
53647;BME280;39550;52.230;5.194;2023-07-02T08:59:21;100871.84;;;17.58;63.40
53647;BME280;39550;52.230;5.194;2023-07-02T09:01:49;100870.94;;;17.61;63.25
53647;BME280;39550;52.230;5.194;2023-07-02T09:04:17;100868.25;;;17.65;63.26
53647;BME280;39550;52.230;5.194;2023-07-02T09:06:43;100868.16;;;17.68;63.14
53647;BME280;39550;52.230;5.194;2023-07-02T09:09:08;100884.63;;;17.70;63.17
53647;BME280;39550;52.230;5.194;2023-07-02T09:11:34;100875.22;;;17.63;63.24
53647;BME280;39550;52.230;5.194;2023-07-02T09:13:59;100875.09;;;17.69;63.70
53647;BME280;39550;52.230;5.194;2023-07-02T09:16:32;100869.81;;;17.73;63.21
53647;BME280;39550;52.230;5.194;2023-07-02T09:21:28;100874.06;;;17.77;63.18
53647;BME280;39550;52.230;5.194;2023-07-02T09:24:11;100870.59;;;17.78;63.21
53647;BME280;39550;52.230;5.194;2023-07-02T09:26:36;100881.75;;;17.83;62.87
53647;BME280;39550;52.230;5.194;2023-07-02T09:29:01;100882.63;;;17.82;63.21
53647;BME280;39550;52.230;5.194;2023-07-02T09:31:27;100879.25;;;17.78;62.81
53647;BME280;39550;52.230;5.194;2023-07-02T09:34:00;100887.03;;;17.80;62.41
53647;BME280;39550;52.230;5.194;2023-07-02T09:36:28;100871.47;;;17.77;63.05
53647;BME280;39550;52.230;5.194;2023-07-02T09:38:56;100879.97;;;17.85;62.33
53647;BME280;39550;52.230;5.194;2023-07-02T09:41:21;100869.44;;;17.91;62.48
53647;BME280;39550;52.230;5.194;2023-07-02T09:43:47;100870.31;;;17.88;62.32
53647;BME280;39550;52.230;5.194;2023-07-02T09:46:12;100887.66;;;17.93;62.18
53647;BME280;39550;52.230;5.194;2023-07-02T09:48:38;100875.31;;;18.01;62.38
53647;BME280;39550;52.230;5.194;2023-07-02T09:51:03;100871.00;;;18.00;62.29
53647;BME280;39550;52.230;5.194;2023-07-02T09:53:29;100879.66;;;18.00;61.68
53647;BME280;39550;52.230;5.194;2023-07-02T09:55:54;100879.47;;;18.10;61.77
53647;BME280;39550;52.230;5.194;2023-07-02T09:58:20;100882.97;;;18.09;62.29
53647;BME280;39550;52.230;5.194;2023-07-02T10:00:49;100877.75;;;18.09;62.12
53647;BME280;39550;52.230;5.194;2023-07-02T10:03:30;100898.53;;;18.12;61.81
53647;BME280;39550;52.230;5.194;2023-07-02T10:06:08;100884.63;;;18.13;61.71
53647;BME280;39550;52.230;5.194;2023-07-02T10:08:34;100889.75;;;18.16;61.61
53647;BME280;39550;52.230;5.194;2023-07-02T10:11:08;100885.25;;;18.23;60.69
53647;BME280;39550;52.230;5.194;2023-07-02T10:13:39;100902.91;;;18.11;61.12
53647;BME280;39550;52.230;5.194;2023-07-02T10:16:04;100910.81;;;18.07;60.87
53647;BME280;39550;52.230;5.194;2023-07-02T10:18:30;100898.53;;;18.12;60.88
53647;BME280;39550;52.230;5.194;2023-07-02T10:21:12;100911.72;;;18.06;61.00
53647;BME280;39550;52.230;5.194;2023-07-02T10:23:41;100905.66;;;18.03;61.24
53647;BME280;39550;52.230;5.194;2023-07-02T10:26:13;100893.59;;;17.99;61.49
53647;BME280;39550;52.230;5.194;2023-07-02T10:28:39;100901.31;;;18.04;61.23
53647;BME280;39550;52.230;5.194;2023-07-02T10:31:16;100908.09;;;18.13;61.27
53647;BME280;39550;52.230;5.194;2023-07-02T10:33:43;100907.41;;;18.04;61.42
53647;BME280;39550;52.230;5.194;2023-07-02T10:36:17;100917.75;;;18.08;61.30
53647;BME280;39550;52.230;5.194;2023-07-02T10:38:42;100917.75;;;18.08;61.43
53647;BME280;39550;52.230;5.194;2023-07-02T10:41:08;100916.91;;;18.07;61.35
53647;BME280;39550;52.230;5.194;2023-07-02T10:43:33;100931.75;;;18.03;61.67
53647;BME280;39550;52.230;5.194;2023-07-02T10:45:59;100925.81;;;17.97;61.69
53647;BME280;39550;52.230;5.194;2023-07-02T10:48:25;100921.31;;;18.03;61.37
53647;BME280;39550;52.230;5.194;2023-07-02T10:50:50;100926.47;;;18.07;61.10
53647;BME280;39550;52.230;5.194;2023-07-02T10:53:16;100923.03;;;18.04;61.00
53647;BME280;39550;52.230;5.194;2023-07-02T10:55:41;100923.13;;;18.01;61.13
53647;BME280;39550;52.230;5.194;2023-07-02T10:58:07;100923.81;;;18.10;60.93
53647;BME280;39550;52.230;5.194;2023-07-02T11:00:33;100914.38;;;18.02;61.06
53647;BME280;39550;52.230;5.194;2023-07-02T11:02:58;100929.25;;;17.99;60.82
53647;BME280;39550;52.230;5.194;2023-07-02T11:05:24;100927.41;;;18.02;60.76
53647;BME280;39550;52.230;5.194;2023-07-02T11:07:49;100922.13;;;18.07;60.77
53647;BME280;39550;52.230;5.194;2023-07-02T11:10:22;100921.31;;;18.03;60.51
53647;BME280;39550;52.230;5.194;2023-07-02T11:12:47;100938.69;;;18.04;60.40
53647;BME280;39550;52.230;5.194;2023-07-02T11:15:13;100929.94;;;18.07;60.57
53647;BME280;39550;52.230;5.194;2023-07-02T11:17:39;100935.88;;;18.14;60.18
53647;BME280;39550;52.230;5.194;2023-07-02T11:20:08;100930.56;;;18.18;59.68
53647;BME280;39550;52.230;5.194;2023-07-02T11:22:34;100915.72;;;18.22;59.55
53647;BME280;39550;52.230;5.194;2023-07-02T11:25:09;100931.34;;;18.22;59.26
53647;BME280;39550;52.230;5.194;2023-07-02T11:27:35;100929.63;;;18.21;59.45
53647;BME280;39550;52.230;5.194;2023-07-02T11:30:00;100929.56;;;18.24;59.31
53647;BME280;39550;52.230;5.194;2023-07-02T11:32:26;100924.25;;;18.27;58.92
53647;BME280;39550;52.230;5.194;2023-07-02T11:34:54;100912.94;;;18.28;58.43
53647;BME280;39550;52.230;5.194;2023-07-02T11:37:19;100915.63;;;18.25;57.95
53647;BME280;39550;52.230;5.194;2023-07-02T11:39:45;100936.50;;;18.25;58.82
53647;BME280;39550;52.230;5.194;2023-07-02T11:42:10;100935.31;;;18.38;57.95
53647;BME280;39550;52.230;5.194;2023-07-02T11:44:35;100929.25;;;18.38;57.83
53647;BME280;39550;52.230;5.194;2023-07-02T11:47:00;100931.19;;;18.28;57.94
53647;BME280;39550;52.230;5.194;2023-07-02T11:49:26;100945.28;;;18.21;57.64
53647;BME280;39550;52.230;5.194;2023-07-02T11:51:51;100935.72;;;18.20;57.90
53647;BME280;39550;52.230;5.194;2023-07-02T11:54:16;100947.66;;;18.30;57.15
53647;BME280;39550;52.230;5.194;2023-07-02T11:56:43;100957.97;;;18.36;56.98
53647;BME280;39550;52.230;5.194;2023-07-02T11:59:08;100937.91;;;18.38;56.03
53647;BME280;39550;52.230;5.194;2023-07-02T12:01:34;100936.22;;;18.37;56.57
53647;BME280;39550;52.230;5.194;2023-07-02T12:03:59;100942.38;;;18.35;56.35
53647;BME280;39550;52.230;5.194;2023-07-02T12:06:24;100939.63;;;18.40;56.29
53647;BME280;39550;52.230;5.194;2023-07-02T12:08:50;100935.78;;;18.56;54.13
53647;BME280;39550;52.230;5.194;2023-07-02T12:11:15;100947.38;;;18.44;53.36
53647;BME280;39550;52.230;5.194;2023-07-02T12:13:41;100951.72;;;18.44;52.46
53647;BME280;39550;52.230;5.194;2023-07-02T12:16:06;100936.63;;;18.58;50.93
53647;BME280;39550;52.230;5.194;2023-07-02T12:18:31;100947.72;;;18.66;51.22
53647;BME280;39550;52.230;5.194;2023-07-02T12:20:56;100968.94;;;18.51;52.42
53647;BME280;39550;52.230;5.194;2023-07-02T12:23:22;100957.09;;;18.37;54.02
53647;BME280;39550;52.230;5.194;2023-07-02T12:25:47;100967.28;;;18.47;54.37
53647;BME280;39550;52.230;5.194;2023-07-02T12:28:14;100965.25;;;18.61;53.46
53647;BME280;39550;52.230;5.194;2023-07-02T12:30:39;100964.88;;;18.77;53.09
53647;BME280;39550;52.230;5.194;2023-07-02T12:33:05;100962.63;;;18.61;53.63
53647;BME280;39550;52.230;5.194;2023-07-02T12:35:30;100962.31;;;18.75;53.64
53647;BME280;39550;52.230;5.194;2023-07-02T12:37:55;100958.09;;;18.69;53.70
53647;BME280;39550;52.230;5.194;2023-07-02T12:40:20;100957.66;;;18.88;53.08
53647;BME280;39550;52.230;5.194;2023-07-02T12:42:46;100968.72;;;18.98;53.61
53647;BME280;39550;52.230;5.194;2023-07-02T12:45:12;100957.53;;;18.94;53.53
53647;BME280;39550;52.230;5.194;2023-07-02T12:47:43;100954.34;;;18.80;54.49
53647;BME280;39550;52.230;5.194;2023-07-02T12:50:11;100963.41;;;19.02;53.45